Time;durP1;ratioP1;P1;durP2;ratioP2;P2;SDS_P1;SDS_P2;PMS_P1;PMS_P2;Temp;Humidity;BMP_temperature;BMP_pressure;BME280_temperature;BME280_humidity;BME280_pressure;Samples;Min_cycle;Max_cycle;Signal;HPM_P1;HPM_P2
2022/06/30 00:00:52;;;;;;;8.48;6.05;;;;;;;24.49;46.35;100961.44;5031784;28;20041;-68
2022/06/30 00:03:21;;;;;;;7.18;5.38;;;;;;;24.46;46.47;100967.34;5035411;28;20045;-68
2022/06/30 00:05:48;;;;;;;11.13;6.40;;;;;;;24.43;46.20;100959.47;5035095;28;20035;-68
2022/06/30 00:08:15;;;;;;;6.20;5.60;;;;;;;24.40;46.59;100965.38;5034832;28;20053;-68
2022/06/30 00:10:42;;;;;;;8.00;6.07;;;;;;;24.37;46.59;100961.13;5034957;28;20042;-69
2022/06/30 00:13:09;;;;;;;8.38;6.47;;;;;;;24.34;46.93;100957.91;5034739;28;20050;-69
2022/06/30 00:15:37;;;;;;;10.82;5.70;;;;;;;24.30;46.49;100951.97;5034493;28;20052;-68
2022/06/30 00:18:04;;;;;;;6.45;5.72;;;;;;;24.28;46.69;100956.81;5035953;28;20048;-69
2022/06/30 00:20:30;;;;;;;7.78;6.03;;;;;;;24.24;46.90;100958.22;5053972;28;20049;-69
2022/06/30 00:22:58;;;;;;;6.90;6.30;;;;;;;24.22;46.87;100954.81;5054776;28;20067;-69
2022/06/30 00:25:24;;;;;;;7.18;6.40;;;;;;;24.20;46.82;100956.06;5054354;28;20049;-68
2022/06/30 00:27:52;;;;;;;7.57;6.18;;;;;;;24.16;46.73;100949.25;5035382;28;20061;-69
2022/06/30 00:30:19;;;;;;;9.23;6.90;;;;;;;24.11;47.10;100951.75;5034669;28;20426;-68
2022/06/30 00:32:50;;;;;;;9.18;6.80;;;;;;;24.06;47.18;100947.69;5033372;28;20156;-68
2022/06/30 00:35:16;;;;;;;8.43;6.82;;;;;;;24.02;47.04;100942.78;5034074;28;20080;-68
2022/06/30 00:37:43;;;;;;;7.47;6.78;;;;;;;23.98;47.38;100935.97;5034472;28;20045;-68
2022/06/30 00:40:10;;;;;;;7.40;6.65;;;;;;;23.96;47.41;100932.59;5037659;28;20522;-68
2022/06/30 00:42:38;;;;;;;6.93;6.22;;;;;;;23.92;47.32;100937.59;5054357;28;20045;-68
2022/06/30 00:45:05;;;;;;;8.27;6.15;;;;;;;23.89;47.61;100935.25;5054497;28;20041;-67
2022/06/30 00:47:32;;;;;;;7.68;6.85;;;;;;;23.87;47.60;100937.34;5054269;28;20049;-68
2022/06/30 00:49:59;;;;;;;9.23;6.82;;;;;;;23.84;47.86;100937.72;5053464;28;20507;-68
2022/06/30 00:52:30;;;;;;;9.68;7.18;;;;;;;23.80;47.53;100938.31;5054366;28;20084;-69
2022/06/30 00:54:57;;;;;;;9.27;6.93;;;;;;;23.74;47.81;100945.38;5054099;28;20060;-67
2022/06/30 00:57:25;;;;;;;10.05;6.97;;;;;;;23.66;47.83;100949.09;5041317;28;20041;-67
2022/06/30 00:59:53;;;;;;;8.05;7.25;;;;;;;23.60;48.24;100938.03;5034071;28;20057;-68
2022/06/30 01:02:29;;;;;;;13.40;7.97;;;;;;;23.57;48.16;100932.94;5034083;28;20065;-67
2022/06/30 01:04:57;;;;;;;11.75;7.07;;;;;;;23.58;48.23;100930.00;5034085;28;20073;-67
2022/06/30 01:07:25;;;;;;;9.18;7.43;;;;;;;23.57;48.26;100942.00;5034215;28;20046;-68
2022/06/30 01:12:47;;;;;;;8.35;7.53;;;;;;;23.51;48.55;100928.19;5033994;28;20452;-67
2022/06/30 01:15:17;;;;;;;8.50;7.63;;;;;;;23.51;48.68;100928.19;5033653;28;20042;-67
2022/06/30 01:17:45;;;;;;;8.32;7.53;;;;;;;23.50;48.49;100930.06;5032080;28;20418;-67
2022/06/30 01:20:13;;;;;;;10.48;9.40;;;;;;;23.50;48.68;100935.56;5033726;28;20276;-68
2022/06/30 01:22:45;;;;;;;10.93;8.65;;;;;;;23.50;48.96;100937.44;5033858;28;20045;-68
2022/06/30 01:25:11;;;;;;;11.02;8.75;;;;;;;23.50;48.90;100938.31;5033578;28;20057;-67
2022/06/30 01:27:38;;;;;;;10.00;8.90;;;;;;;23.50;48.67;100948.41;5033548;28;20502;-67
2022/06/30 01:30:05;;;;;;;8.90;7.88;;;;;;;23.48;48.85;100953.25;5038402;28;20037;-67
2022/06/30 01:32:34;;;;;;;11.55;8.73;;;;;;;23.49;48.88;100960.41;5053582;28;20115;-67
2022/06/30 01:35:01;;;;;;;10.65;9.10;;;;;;;23.47;48.91;100963.34;5052283;28;20037;-67
2022/06/30 01:37:44;;;;;;;10.82;9.27;;;;;;;23.46;49.17;100958.91;5053633;28;20059;-67
2022/06/30 01:40:10;;;;;;;10.40;9.13;;;;;;;23.45;49.25;100955.31;5053419;28;20037;-67
2022/06/30 01:42:38;;;;;;;10.45;9.38;;;;;;;23.44;48.73;100958.25;5051982;28;20049;-67
2022/06/30 01:45:06;;;;;;;10.70;9.60;;;;;;;23.43;49.38;100962.88;5053257;28;20037;-68
2022/06/30 01:47:35;;;;;;;11.45;9.02;;;;;;;23.43;49.07;100960.13;5051662;28;20044;-67
2022/06/30 01:50:08;;;;;;;11.63;10.18;;;;;;;23.42;49.29;100952.09;5052159;28;20049;-67
2022/06/30 01:52:35;;;;;;;11.68;10.48;;;;;;;23.42;49.47;100958.44;5033062;28;20166;-67
2022/06/30 01:55:02;;;;;;;11.50;10.20;;;;;;;23.41;49.63;100961.38;5033040;28;20057;-67
2022/06/30 01:57:29;;;;;;;10.95;9.68;;;;;;;23.39;49.42;100958.81;5033305;28;20042;-67
2022/06/30 01:59:56;;;;;;;12.38;10.55;;;;;;;23.37;49.63;100960.91;5033049;28;20107;-67
2022/06/30 02:02:26;;;;;;;12.18;10.70;;;;;;;23.36;49.86;100963.84;5033069;28;20440;-67
2022/06/30 02:04:53;;;;;;;11.30;9.82;;;;;;;23.35;49.56;100962.97;5032989;28;20349;-67
2022/06/30 02:07:22;;;;;;;11.95;10.73;;;;;;;23.35;49.99;100959.38;5033042;28;20053;-67
2022/06/30 02:09:51;;;;;;;14.23;11.05;;;;;;;23.34;49.83;100958.53;5033108;28;20053;-67
2022/06/30 02:14:50;;;;;;;13.13;10.98;;;;;;;23.28;49.98;100953.81;5032556;28;20566;-67
2022/06/30 02:17:17;;;;;;;13.90;11.75;;;;;;;23.27;50.08;100959.50;5033223;28;20049;-67
2022/06/30 02:19:44;;;;;;;15.95;11.77;;;;;;;23.22;49.78;100951.84;5032694;28;20044;-67
2022/06/30 02:22:10;;;;;;;15.02;12.57;;;;;;;23.18;49.87;100952.41;5032453;28;20030;-68
2022/06/30 02:24:37;;;;;;;13.93;11.80;;;;;;;23.13;50.16;100952.97;5032137;28;20123;-67
2022/06/30 02:27:04;;;;;;;18.75;12.50;;;;;;;23.09;49.96;100952.50;5032616;28;20045;-69
2022/06/30 02:29:31;;;;;;;13.82;12.13;;;;;;;23.10;49.98;100956.09;5032542;28;20426;-68
2022/06/30 02:31:58;;;;;;;15.07;12.52;;;;;;;23.09;50.43;100957.97;5032252;28;20037;-68
2022/06/30 02:34:24;;;;;;;15.65;13.25;;;;;;;23.07;50.16;100959.19;5032560;28;20399;-68
2022/06/30 02:36:51;;;;;;;15.48;13.80;;;;;;;23.06;50.53;100965.72;5032445;28;20042;-68
2022/06/30 02:39:18;;;;;;;14.75;12.80;;;;;;;23.06;50.42;100960.22;5032527;28;20394;-67
2022/06/30 02:41:44;;;;;;;14.45;12.93;;;;;;;23.05;50.58;100958.53;5032198;28;20043;-68
2022/06/30 02:44:12;;;;;;;17.30;14.15;;;;;;;23.06;50.71;100947.38;5032496;28;20046;-69
2022/06/30 02:46:39;;;;;;;15.93;14.25;;;;;;;23.07;51.02;100950.97;5032158;28;20037;-69
2022/06/30 02:49:05;;;;;;;17.45;14.68;;;;;;;23.06;50.84;100952.03;5032100;28;20099;-68
2022/06/30 02:51:32;;;;;;;15.98;14.23;;;;;;;23.04;50.87;100948.63;5032006;28;20503;-68
2022/06/30 02:53:59;;;;;;;16.63;14.55;;;;;;;23.03;50.80;100949.63;5032170;28;20041;-68
2022/06/30 02:56:26;;;;;;;16.92;15.23;;;;;;;23.04;50.79;100951.34;5032038;28;20037;-68
2022/06/30 02:58:53;;;;;;;17.83;15.93;;;;;;;23.05;50.85;100953.06;5032038;28;20057;-68
2022/06/30 03:01:19;;;;;;;20.17;16.67;;;;;;;23.05;50.97;100945.69;5031893;28;20041;-68
2022/06/30 03:03:46;;;;;;;19.23;17.10;;;;;;;23.07;51.26;100945.50;5031846;28;20057;-68
2022/06/30 03:06:12;;;;;;;21.75;17.60;;;;;;;23.08;51.26;100939.84;5031888;28;20033;-68
2022/06/30 03:08:39;;;;;;;20.85;17.98;;;;;;;23.08;51.08;100944.47;5063867;28;20048;-68
2022/06/30 03:11:06;;;;;;;20.65;17.67;;;;;;;23.10;51.06;100937.75;5031773;28;20048;-69
2022/06/30 03:13:32;;;;;;;23.27;18.52;;;;;;;23.12;51.46;100935.69;5032054;28;20046;-69
2022/06/30 03:16:01;;;;;;;22.52;18.10;;;;;;;23.12;51.42;100932.94;5031716;28;20054;-69
2022/06/30 03:18:28;;;;;;;22.08;18.60;;;;;;;23.12;51.58;100932.09;5031780;28;20042;-69
2022/06/30 03:20:56;;;;;;;22.05;17.85;;;;;;;23.11;51.34;100927.66;5031283;28;20044;-69
2022/06/30 03:23:27;;;;;;;20.40;18.23;;;;;;;23.10;51.56;100928.69;5031777;28;20064;-68
2022/06/30 03:25:54;;;;;;;20.38;17.90;;;;;;;23.09;51.27;100930.56;5031821;28;20045;-69
2022/06/30 03:28:20;;;;;;;20.08;17.98;;;;;;;23.10;51.44;100942.38;5031460;28;20041;-68
2022/06/30 03:30:47;;;;;;;22.20;18.58;;;;;;;23.09;51.81;100946.16;5031055;28;20037;-68
2022/06/30 03:33:22;;;;;;;21.98;17.88;;;;;;;23.08;51.70;100942.56;5050449;28;20124;-68
2022/06/30 03:35:49;;;;;;;22.05;16.88;;;;;;;23.04;51.42;100935.78;5050460;28;20134;-69
2022/06/30 03:38:16;;;;;;;16.67;14.98;;;;;;;22.99;51.20;100946.41;5051215;28;20045;-68
2022/06/30 03:40:42;;;;;;;21.92;17.63;;;;;;;22.94;51.68;100942.53;5051125;28;20037;-68
2022/06/30 03:43:11;;;;;;;18.38;16.48;;;;;;;22.90;51.51;100936.56;5051598;28;20407;-69
2022/06/30 03:45:37;;;;;;;22.70;18.20;;;;;;;22.89;51.52;100943.09;5051190;28;20056;-68
2022/06/30 03:48:05;;;;;;;20.08;17.88;;;;;;;22.89;51.62;100940.34;5051320;28;20120;-68
2022/06/30 03:50:33;;;;;;;20.50;18.40;;;;;;;22.91;51.82;100940.16;5050060;28;20049;-68
2022/06/30 03:53:01;;;;;;;21.95;19.55;;;;;;;22.90;51.86;100942.06;5051132;28;20521;-68
2022/06/30 03:55:30;;;;;;;20.08;17.90;;;;;;;22.90;51.95;100935.72;5050770;28;20143;-68
2022/06/30 03:57:57;;;;;;;21.63;18.25;;;;;;;22.87;52.00;100925.16;5051389;28;20041;-68
2022/06/30 04:00:24;;;;;;;20.27;18.10;;;;;;;22.85;52.23;100927.22;5050555;28;20052;-68
2022/06/30 04:02:53;;;;;;;22.77;18.42;;;;;;;22.82;52.25;100926.56;5050958;28;20041;-69
2022/06/30 04:05:20;;;;;;;21.30;19.00;;;;;;;22.80;52.34;100922.31;5035001;28;20041;-69
2022/06/30 04:07:46;;;;;;;22.20;18.35;;;;;;;22.79;52.05;100923.31;5030923;28;20048;-68
2022/06/30 04:10:13;;;;;;;20.23;17.48;;;;;;;22.77;52.15;100934.44;5031115;28;20117;-68
2022/06/30 04:12:43;;;;;;;19.88;17.75;;;;;;;22.76;52.64;100924.53;5031194;28;20364;-69
2022/06/30 04:15:10;;;;;;;20.00;17.83;;;;;;;22.74;52.58;100921.13;5062705;28;20053;-68
2022/06/30 04:17:37;;;;;;;21.95;18.33;;;;;;;22.72;52.36;100923.22;5031115;28;20045;-69
2022/06/30 04:20:06;;;;;;;20.75;18.55;;;;;;;22.71;52.75;100926.13;5030914;28;20064;-68
2022/06/30 04:22:33;;;;;;;19.38;17.40;;;;;;;22.72;52.54;100928.69;5030944;28;20049;-69
2022/06/30 04:25:00;;;;;;;20.42;18.20;;;;;;;22.73;52.75;100930.38;5029569;28;20041;-68
2022/06/30 04:27:26;;;;;;;20.42;18.27;;;;;;;22.74;52.61;100925.75;5031024;28;20045;-68
2022/06/30 04:29:53;;;;;;;21.75;18.20;;;;;;;22.73;52.73;100921.31;5030816;28;20053;-69
2022/06/30 04:32:38;;;;;;;19.27;17.20;;;;;;;22.72;52.97;100906.78;5030680;28;20045;-69
2022/06/30 04:35:06;;;;;;;19.80;17.40;;;;;;;22.73;52.66;100910.38;5030789;28;20164;-68
2022/06/30 04:37:33;;;;;;;21.42;17.10;;;;;;;22.73;52.91;100913.94;5042372;28;20060;-69
2022/06/30 04:42:47;;;;;;;20.25;17.33;;;;;;;22.74;52.81;100915.66;5050548;28;20045;-68
2022/06/30 04:45:14;;;;;;;23.35;17.77;;;;;;;22.74;52.55;100917.53;5050211;28;20047;-68
2022/06/30 04:47:41;;;;;;;21.85;17.40;;;;;;;22.73;53.05;100926.78;5052389;28;20041;-68
2022/06/30 04:50:08;;;;;;;23.23;17.65;;;;;;;22.71;52.73;100926.97;5054605;28;20537;-68
2022/06/30 04:52:39;;;;;;;21.23;18.38;;;;;;;22.70;53.01;100930.75;5054207;28;20050;-68
2022/06/30 04:55:06;;;;;;;20.73;18.67;;;;;;;22.69;53.12;100933.69;5054226;28;20051;-69
2022/06/30 04:57:33;;;;;;;23.55;20.02;;;;;;;22.70;53.25;100935.38;5052151;28;20033;-70
2022/06/30 05:00:00;;;;;;;24.13;20.48;;;;;;;22.69;53.47;100942.75;5054042;28;20368;-70
2022/06/30 05:02:30;;;;;;;23.42;20.23;;;;;;;22.69;53.50;100939.16;5054089;28;20045;-69
2022/06/30 05:04:57;;;;;;;23.73;21.15;;;;;;;22.69;53.46;100939.16;5053638;28;20052;-68
2022/06/30 05:07:24;;;;;;;22.90;20.50;;;;;;;22.69;53.54;100931.78;5054013;28;20052;-67
2022/06/30 05:09:50;;;;;;;24.17;20.45;;;;;;;22.70;53.89;100930.75;5040978;28;20029;-67
2022/06/30 05:12:18;;;;;;;25.23;20.98;;;;;;;22.71;53.87;100929.72;5033614;28;20041;-69
2022/06/30 05:14:45;;;;;;;22.95;19.98;;;;;;;22.72;53.77;100927.81;5033494;28;20049;-68
2022/06/30 05:17:11;;;;;;;23.30;20.63;;;;;;;22.74;53.87;100934.81;5033588;28;20088;-68
2022/06/30 05:19:38;;;;;;;27.02;21.88;;;;;;;22.78;54.29;100932.56;5031988;28;20073;-68
2022/06/30 05:22:05;;;;;;;22.75;20.27;;;;;;;22.83;54.28;100935.63;5031621;28;20499;-67
2022/06/30 05:27:18;;;;;;;24.63;18.65;;;;;;;22.93;54.72;100932.59;5033970;28;20057;-67
2022/06/30 05:29:45;;;;;;;19.85;17.13;;;;;;;22.96;54.42;100945.94;5042183;28;20029;-68
2022/06/30 05:32:13;;;;;;;22.52;18.38;;;;;;;22.99;54.65;100949.16;5053087;28;20487;-68
2022/06/30 05:34:39;;;;;;;20.27;18.25;;;;;;;23.03;54.73;100941.41;5053336;28;20053;-68
2022/06/30 05:37:06;;;;;;;18.23;16.58;;;;;;;23.09;54.64;100955.22;5053398;28;20052;-68
2022/06/30 05:39:33;;;;;;;19.90;17.13;;;;;;;23.14;54.92;100941.81;5053097;28;20044;-68
2022/06/30 05:42:01;;;;;;;24.00;16.73;;;;;;;23.17;54.75;100954.28;5045500;28;20042;-68
2022/06/30 05:44:28;;;;;;;19.30;17.35;;;;;;;23.21;54.46;100946.53;5033278;28;20496;-68
2022/06/30 05:46:56;;;;;;;19.95;17.95;;;;;;;23.25;54.69;100939.66;5033240;28;20037;-67
2022/06/30 05:49:23;;;;;;;20.77;18.58;;;;;;;23.29;54.60;100944.56;5033017;28;20072;-68
2022/06/30 05:51:50;;;;;;;21.42;17.98;;;;;;;23.36;54.39;100945.50;5031752;28;20041;-68
2022/06/30 05:54:18;;;;;;;19.33;17.25;;;;;;;23.44;54.47;100939.91;5034912;28;20403;-68
2022/06/30 05:56:45;;;;;;;20.63;16.70;;;;;;;23.53;54.32;100942.56;5052178;28;20514;-67
2022/06/30 05:59:12;;;;;;;18.40;16.45;;;;;;;23.60;54.39;100949.00;5051935;28;20048;-68
2022/06/30 06:01:38;;;;;;;18.70;16.80;;;;;;;23.67;54.52;100938.97;5052407;28;20410;-68
2022/06/30 06:04:06;;;;;;;20.55;18.38;;;;;;;23.75;54.22;100938.84;5053100;28;20041;-68
2022/06/30 06:06:33;;;;;;;24.77;17.73;;;;;;;23.86;54.23;100948.50;5052626;28;20399;-68
2022/06/30 06:08:59;;;;;;;19.55;17.55;;;;;;;23.99;54.34;100943.16;5050818;28;20403;-68
2022/06/30 06:11:26;;;;;;;20.65;18.45;;;;;;;24.16;54.09;100952.00;5052203;28;20390;-69
2022/06/30 06:13:56;;;;;;;20.45;17.08;;;;;;;24.23;53.92;100944.69;5052399;28;20433;-68
2022/06/30 06:16:23;;;;;;;19.38;17.38;;;;;;;24.33;53.99;100946.09;5052728;28;20048;-68
2022/06/30 06:18:50;;;;;;;19.98;17.98;;;;;;;24.49;53.87;100944.97;5052164;28;20506;-68
2022/06/30 06:21:17;;;;;;;19.42;17.42;;;;;;;24.63;54.06;100945.97;5052287;28;20041;-68
2022/06/30 06:23:46;;;;;;;20.40;18.35;;;;;;;24.81;53.57;100948.22;5052359;28;20047;-68
2022/06/30 06:26:13;;;;;;;18.90;16.77;;;;;;;24.93;53.62;100955.72;5050474;28;20120;-68
2022/06/30 06:31:25;;;;;;;20.20;18.10;;;;;;;25.22;53.06;100957.41;5052143;28;20041;-68
2022/06/30 06:33:52;;;;;;;20.98;18.92;;;;;;;25.33;52.77;100969.78;5052425;28;20487;-68
2022/06/30 06:36:19;;;;;;;22.38;20.08;;;;;;;25.42;52.75;100971.31;5051984;28;20145;-68
2022/06/30 06:38:46;;;;;;;22.25;20.05;;;;;;;25.48;52.42;100972.41;5047370;28;20033;-68
2022/06/30 06:41:14;;;;;;;22.98;20.60;;;;;;;25.50;52.57;100960.16;5051601;28;20041;-69
2022/06/30 06:43:43;;;;;;;24.38;21.75;;;;;;;25.59;52.50;100972.66;5052065;28;20076;-69
2022/06/30 06:46:09;;;;;;;22.73;20.48;;;;;;;25.70;52.32;100965.78;5051727;28;20076;-68
2022/06/30 06:48:36;;;;;;;23.85;21.08;;;;;;;25.77;51.86;100963.03;5052247;28;20052;-69
2022/06/30 06:51:03;;;;;;;23.70;21.27;;;;;;;25.80;51.83;100970.88;5051869;28;20521;-71
2022/06/30 06:53:31;;;;;;;22.88;20.38;;;;;;;25.84;51.91;100973.03;5051697;28;20047;-68
2022/06/30 06:55:57;;;;;;;25.15;20.92;;;;;;;25.91;51.73;100979.41;5051824;28;20048;-69
2022/06/30 06:58:24;;;;;;;24.60;21.83;;;;;;;25.95;51.45;100979.84;5051650;28;20729;-69
2022/06/30 07:00:53;;;;;;;23.27;21.00;;;;;;;26.00;51.47;100981.97;5051630;28;20041;-69
2022/06/30 07:03:20;;;;;;;25.48;22.80;;;;;;;26.06;51.33;100979.28;5051770;28;20044;-68
2022/06/30 07:05:47;;;;;;;23.77;21.27;;;;;;;26.16;51.44;100981.63;5051848;28;20065;-68
2022/06/30 07:08:14;;;;;;;28.17;22.77;;;;;;;26.30;51.47;100977.84;5051543;28;20139;-68
2022/06/30 07:10:40;;;;;;;23.75;21.27;;;;;;;26.43;51.24;100975.16;5050423;28;20048;-68
2022/06/30 07:13:09;;;;;;;25.13;22.80;;;;;;;26.60;51.12;100978.34;5051196;28;20052;-69
2022/06/30 07:15:36;;;;;;;22.38;20.08;;;;;;;26.77;50.96;100976.03;5051242;28;20045;-69
2022/06/30 07:18:03;;;;;;;24.85;21.02;;;;;;;26.93;50.58;100992.16;5051428;28;20045;-69
2022/06/30 07:20:30;;;;;;;22.70;20.13;;;;;;;27.09;50.31;100986.22;5051453;28;20055;-69
2022/06/30 07:22:58;;;;;;;21.55;19.38;;;;;;;27.18;50.21;101007.00;5051135;28;20107;-69
2022/06/30 07:25:45;;;;;;;25.70;20.25;;;;;;;27.36;50.15;101002.72;5051341;28;20491;-69
2022/06/30 07:28:11;;;;;;;24.55;19.60;;;;;;;27.46;49.68;101008.66;5051267;28;20033;-69
2022/06/30 07:31:01;;;;;;;23.00;19.73;;;;;;;27.58;49.56;101008.88;5049770;28;20075;-69
2022/06/30 07:33:29;;;;;;;23.15;20.23;;;;;;;27.69;49.27;101010.97;5051005;28;20079;-69
2022/06/30 07:35:58;;;;;;;24.90;21.25;;;;;;;27.73;48.89;101024.13;5051271;28;20037;-69
2022/06/30 07:38:24;;;;;;;23.23;20.08;;;;;;;27.74;48.87;101031.34;5049675;28;20052;-69
2022/06/30 07:40:51;;;;;;;22.65;19.90;;;;;;;27.72;48.48;101027.09;5051339;28;20411;-69
2022/06/30 07:43:19;;;;;;;20.80;18.70;;;;;;;27.73;48.24;101034.31;5050747;28;20048;-69
2022/06/30 07:45:45;;;;;;;24.58;21.17;;;;;;;27.72;47.71;101036.22;5051275;28;20048;-69
2022/06/30 07:48:12;;;;;;;21.45;18.80;;;;;;;27.68;47.86;101037.72;5051041;28;20487;-68
2022/06/30 07:50:39;;;;;;;20.92;18.65;;;;;;;27.73;47.94;101048.13;5051036;28;20037;-68
2022/06/30 07:53:08;;;;;;;19.88;17.92;;;;;;;27.83;47.71;101046.59;5050787;28;20492;-69
2022/06/30 07:55:34;;;;;;;19.17;16.00;;;;;;;27.88;47.59;101043.19;5050999;28;20479;-69
2022/06/30 07:58:01;;;;;;;23.02;17.42;;;;;;;27.98;47.67;101053.75;5050980;28;20049;-69
2022/06/30 08:00:28;;;;;;;19.70;16.98;;;;;;;28.03;47.21;101056.72;5050946;28;20037;-69
2022/06/30 08:02:59;;;;;;;18.17;15.43;;;;;;;28.10;47.14;101052.00;5050653;28;20125;-69
2022/06/30 08:05:26;;;;;;;19.02;14.85;;;;;;;28.16;46.92;101054.75;5050590;28;20368;-68
2022/06/30 08:07:52;;;;;;;18.20;14.68;;;;;;;28.18;46.56;101055.38;5050828;28;20056;-69
2022/06/30 08:10:19;;;;;;;16.95;13.40;;;;;;;28.23;46.43;101053.88;5050816;28;20037;-70
2022/06/30 08:12:50;;;;;;;15.45;12.82;;;;;;;28.29;46.11;101055.81;5049010;28;20559;-71
2022/06/30 08:15:17;;;;;;;17.20;12.73;;;;;;;28.31;45.74;101051.75;5050795;28;20037;-70
2022/06/30 08:17:44;;;;;;;13.93;11.60;;;;;;;28.32;45.91;101053.47;5049419;28;20490;-71
2022/06/30 08:20:10;;;;;;;15.38;12.88;;;;;;;28.35;45.85;101050.25;5050660;28;20502;-70
2022/06/30 08:22:38;;;;;;;17.98;12.30;;;;;;;28.39;45.12;101048.75;5052278;28;20045;-68
2022/06/30 08:25:05;;;;;;;17.55;12.18;;;;;;;28.47;45.64;101042.94;5042910;28;20060;-70
2022/06/30 08:27:33;;;;;;;16.05;11.68;;;;;;;28.48;45.20;101038.28;5034822;28;20046;-68
2022/06/30 08:29:59;;;;;;;18.13;12.43;;;;;;;28.50;45.01;101036.13;5034892;28;20406;-67
2022/06/30 08:32:29;;;;;;;14.57;12.10;;;;;;;28.54;44.71;101031.00;5037840;28;20033;-68
2022/06/30 08:34:56;;;;;;;13.68;12.02;;;;;;;28.60;44.90;101041.19;5054348;28;20114;-68
2022/06/30 08:37:22;;;;;;;12.68;10.27;;;;;;;28.67;44.92;101055.78;5054543;28;20044;-68
2022/06/30 08:42:35;;;;;;;;;;;;;;;28.93;44.73;101047.34;5053446;28;20045;-68
2022/06/30 08:45:17;;;;;;;11.60;8.25;;;;;;;29.03;44.30;101041.34;5052732;28;19924;-68
2022/06/30 08:47:46;;;;;;;10.20;8.57;;;;;;;29.06;44.17;101038.97;5053020;28;20510;-68
2022/06/30 08:50:14;;;;;;;10.35;9.25;;;;;;;29.11;43.69;101032.75;5054564;28;20068;-68
2022/06/30 08:52:51;;;;;;;12.15;8.52;;;;;;;29.18;43.59;101032.69;5052730;28;20139;-68
2022/06/30 08:55:23;;;;;;;10.60;7.75;;;;;;;29.22;43.09;101033.94;5036321;28;20131;-67
2022/06/30 08:57:54;;;;;;;10.10;7.50;;;;;;;29.28;43.24;101036.63;5054090;28;20037;-68
2022/06/30 09:00:21;;;;;;;11.80;7.47;;;;;;;29.40;43.21;101039.50;5054065;28;20057;-68
2022/06/30 09:02:49;;;;;;;11.00;7.70;;;;;;;29.54;42.92;101048.53;5053953;28;20041;-68
2022/06/30 09:05:16;;;;;;;10.85;7.75;;;;;;;29.69;42.89;101044.31;5052653;28;20045;-68
2022/06/30 09:07:42;;;;;;;7.90;6.70;;;;;;;29.86;42.54;101040.97;5053925;28;20144;-69
2022/06/30 09:10:29;;;;;;;10.18;7.72;;;;;;;30.01;42.25;101036.75;5053521;28;20040;-68
2022/06/30 09:13:02;;;;;;;11.77;8.57;;;;;;;30.07;41.90;101048.00;5052213;28;20040;-68
2022/06/30 09:15:30;;;;;;;9.63;7.88;;;;;;;30.08;41.86;101036.69;5053713;28;20057;-69
2022/06/30 09:18:01;;;;;;;7.95;7.03;;;;;;;30.08;41.69;101041.38;5053291;28;20072;-68
2022/06/30 09:20:39;;;;;;;11.70;6.70;;;;;;;30.12;41.45;101043.44;5053528;28;20116;-69
2022/06/30 09:23:25;;;;;;;8.75;6.07;;;;;;;30.20;41.25;101043.13;5053214;28;20041;-68
2022/06/30 09:25:54;;;;;;;12.68;5.78;;;;;;;30.28;41.00;101056.66;5053321;28;20061;-68
2022/06/30 09:28:54;;;;;;;12.43;6.25;;;;;;;30.32;40.71;101049.56;5053849;28;20084;-68
2022/06/30 09:31:45;;;;;;;11.52;6.47;;;;;;;30.44;40.77;101052.38;5053075;28;20041;-68
2022/06/30 09:34:21;;;;;;;12.60;7.43;;;;;;;30.49;40.73;101046.16;5053410;28;20399;-69
2022/06/30 09:36:49;;;;;;;10.68;6.75;;;;;;;30.51;40.56;101049.53;5051562;28;20048;-69
2022/06/30 09:39:17;;;;;;;10.07;7.00;;;;;;;30.48;40.18;101044.47;5053043;28;20044;-69
2022/06/30 09:41:46;;;;;;;14.35;7.05;;;;;;;30.47;39.92;101048.28;5052887;28;20121;-69
2022/06/30 09:44:21;;;;;;;9.75;6.13;;;;;;;30.50;39.94;101050.63;5053248;28;20411;-69
2022/06/30 09:46:57;;;;;;;11.13;6.15;;;;;;;30.54;39.99;101049.06;5053181;28;20043;-69
2022/06/30 09:49:45;;;;;;;9.30;5.43;;;;;;;30.58;39.62;101048.38;5051335;28;20052;-68
2022/06/30 09:52:24;;;;;;;11.48;5.18;;;;;;;30.70;39.73;101048.44;5051388;28;20398;-69
2022/06/30 09:54:57;;;;;;;8.27;5.50;;;;;;;30.85;40.00;101037.75;5052952;28;20045;-68
2022/06/30 09:57:32;;;;;;;9.50;5.32;;;;;;;31.06;39.59;101044.66;5053003;28;20453;-69
2022/06/30 10:00:04;;;;;;;7.55;6.00;;;;;;;31.19;39.31;101052.78;5052879;28;20043;-69
2022/06/30 10:02:44;;;;;;;12.52;6.00;;;;;;;31.20;38.77;101048.91;5051576;28;20072;-69
2022/06/30 10:05:11;;;;;;;10.35;5.95;;;;;;;31.22;38.51;101057.03;5041874;28;20885;-68
2022/06/30 10:07:39;;;;;;;11.93;5.55;;;;;;;31.30;38.65;101053.91;5033921;28;20034;-69
2022/06/30 10:10:11;;;;;;;11.80;6.00;;;;;;;31.37;38.68;101042.69;5032535;28;20049;-68
2022/06/30 10:12:45;;;;;;;11.90;6.93;;;;;;;31.43;38.54;101047.25;5032440;28;20076;-68
2022/06/30 10:15:14;;;;;;;6.63;5.70;;;;;;;31.45;38.32;101040.38;5012743;28;20046;-68
2022/06/30 10:17:47;;;;;;;8.95;6.13;;;;;;;31.53;38.40;101045.56;5012973;28;20470;-69
2022/06/30 10:20:22;;;;;;;11.88;5.85;;;;;;;31.59;38.13;101043.75;5012934;28;20104;-68
2022/06/30 10:22:50;;;;;;;13.50;5.25;;;;;;;31.66;38.14;101044.47;5018699;28;20488;-68
2022/06/30 10:25:17;;;;;;;11.88;5.30;;;;;;;31.71;38.04;101036.28;5032490;28;20050;-69
2022/06/30 10:27:46;;;;;;;10.85;5.55;;;;;;;31.77;37.63;101042.78;5036767;28;20035;-68
2022/06/30 10:30:15;;;;;;;8.13;6.10;;;;;;;31.81;37.28;101042.06;5040962;28;20172;-69
2022/06/30 10:32:45;;;;;;;11.35;6.75;;;;;;;31.82;37.42;101034.56;5032349;28;20049;-69
2022/06/30 10:35:28;;;;;;;13.60;6.50;;;;;;;31.89;37.60;101041.69;5032036;28;20586;-69
2022/06/30 10:37:58;;;;;;;6.50;5.32;;;;;;;32.01;38.06;101047.22;5032555;28;20080;-68
2022/06/30 10:41:06;;;;;;;12.68;6.18;;;;;;;32.04;37.14;101043.97;5031321;28;20041;-69
2022/06/30 10:43:34;;;;;;;10.60;6.00;;;;;;;32.07;37.17;101048.19;5030965;28;20045;-69
2022/06/30 10:46:02;;;;;;;8.50;5.15;;;;;;;32.05;37.04;101039.25;5032464;28;20053;-68
2022/06/30 10:48:49;;;;;;;8.13;4.53;;;;;;;32.06;37.17;101035.38;5050613;28;20045;-68
2022/06/30 10:51:16;;;;;;;9.38;5.35;;;;;;;32.17;37.10;101029.78;5052895;28;20049;-68
2022/06/30 10:53:44;;;;;;;12.23;6.22;;;;;;;32.20;36.81;101025.66;5052043;28;20047;-70
2022/06/30 10:56:16;;;;;;;12.68;5.20;;;;;;;32.15;36.67;101029.19;5052387;28;20044;-70
2022/06/30 10:59:16;;;;;;;9.98;4.97;;;;;;;32.14;36.89;101035.00;5051689;28;20041;-71
2022/06/30 11:02:11;;;;;;;8.70;5.78;;;;;;;32.28;37.33;101032.78;5028906;28;20072;-70
2022/06/30 11:04:40;;;;;;;9.43;6.45;;;;;;;32.45;37.05;101040.09;5051684;28;20041;-70
2022/06/30 11:07:11;;;;;;;12.13;7.22;;;;;;;32.53;36.88;101025.78;5049889;28;20051;-70
2022/06/30 11:09:43;;;;;;;11.27;7.38;;;;;;;32.63;36.48;101033.47;5051775;28;20041;-71
2022/06/30 11:12:46;;;;;;;8.70;5.97;;;;;;;32.78;36.35;101025.47;5051532;28;20051;-71
2022/06/30 11:15:14;;;;;;;11.70;6.55;;;;;;;32.93;36.50;101030.44;5029064;28;20049;-70
2022/06/30 11:17:41;;;;;;;11.07;6.10;;;;;;;33.01;36.02;101020.81;5051480;28;20067;-70
2022/06/30 11:20:14;;;;;;;10.48;7.78;;;;;;;33.06;35.59;101018.97;5051465;28;20045;-70
2022/06/30 11:22:44;;;;;;;11.77;7.15;;;;;;;32.97;35.13;101022.44;5051168;28;20116;-69
2022/06/30 11:28:05;;;;;;;8.43;6.60;;;;;;;32.79;35.13;101009.63;5049768;28;20458;-69
2022/06/30 11:30:33;;;;;;;15.05;6.80;;;;;;;32.79;35.30;101021.59;5051275;28;20537;-69
2022/06/30 11:33:04;;;;;;;10.02;5.10;;;;;;;32.89;35.24;101014.50;5050889;28;20041;-69
2022/06/30 11:35:31;;;;;;;9.40;4.63;;;;;;;32.95;34.62;101024.63;5050055;28;20426;-69
2022/06/30 11:37:57;;;;;;;9.60;5.10;;;;;;;32.96;34.50;101024.38;5051009;28;20041;-68
2022/06/30 11:40:25;;;;;;;7.00;4.47;;;;;;;32.99;34.27;101018.31;5051006;28;20519;-69
2022/06/30 11:42:55;;;;;;;10.10;6.40;;;;;;;33.05;34.13;101017.28;5050875;28;20067;-70